Time;durP1;ratioP1;P1;durP2;ratioP2;P2;SDS_P1;SDS_P2;PMS_P1;PMS_P2;Temp;Humidity;BMP_temperature;BMP_pressure;BME280_temperature;BME280_humidity;BME280_pressure;Samples;Min_cycle;Max_cycle;Signal;HPM_P1;HPM_P2
2022/12/25 00:00:29;;;;;;;18.08;6.38;;;;;;;-140.72;100.00;53261.44;5116173;28;20019;-68
2022/12/25 00:02:55;;;;;;;9.32;6.43;;;;;;;-140.72;100.00;53267.53;5119330;28;20420;-67
2022/12/25 00:05:20;;;;;;;22.13;7.38;;;;;;;-140.72;100.00;53231.00;5122033;28;20026;-67
2022/12/25 00:07:45;;;;;;;12.63;6.30;;;;;;;-140.72;100.00;53235.06;5118085;27;20035;-68
2022/12/25 00:10:11;;;;;;;14.60;6.65;;;;;;;-140.72;100.00;53231.00;5124655;27;20110;-70
2022/12/25 00:12:37;;;;;;;16.85;7.50;;;;;;;-140.72;100.00;53255.34;5127291;27;20034;-67
2022/12/25 00:15:03;;;;;;;10.23;5.88;;;;;;;-140.72;100.00;53265.50;5125735;27;20462;-70
2022/12/25 00:17:29;;;;;;;14.60;6.55;;;;;;;-140.72;100.00;53251.31;5128990;27;20039;-67
2022/12/25 00:19:54;;;;;;;15.55;7.13;;;;;;;-140.72;100.00;53222.88;5126640;27;20023;-66
2022/12/25 00:22:19;;;;;;;19.10;7.40;;;;;;;-140.72;100.00;53263.47;5129845;27;20034;-68
2022/12/25 00:24:48;;;;;;;13.45;6.65;;;;;;;-140.72;100.00;53251.31;5130539;27;20309;-69
2022/12/25 00:27:15;;;;;;;16.30;9.87;;;;;;;-140.72;100.00;53267.53;5130135;27;20043;-67
2022/12/25 00:29:40;;;;;;;21.08;9.43;;;;;;;-140.72;100.00;53259.41;5129318;27;20019;-68
2022/12/25 00:32:05;;;;;;;10.25;6.72;;;;;;;-140.72;100.00;53216.78;5128931;27;20366;-68
2022/12/25 00:34:31;;;;;;;11.88;7.63;;;;;;;-140.72;100.00;53271.59;5130121;27;20051;-66
2022/12/25 00:36:56;;;;;;;17.02;8.23;;;;;;;-140.72;100.00;53216.78;5128541;27;20514;-68
2022/12/25 00:39:22;;;;;;;17.42;8.18;;;;;;;-140.72;100.00;53233.03;5131521;27;20023;-68
2022/12/25 00:44:32;;;;;;;17.77;8.57;;;;;;;-140.72;100.00;53231.00;5126548;27;20035;-68
2022/12/25 00:46:57;;;;;;;18.85;8.73;;;;;;;-140.72;100.00;53247.25;5128447;27;20022;-67
2022/12/25 00:49:23;;;;;;;12.20;6.65;;;;;;;-140.72;100.00;53243.19;5126282;27;20035;-67
2022/12/25 00:51:49;;;;;;;10.20;6.90;;;;;;;-140.72;100.00;53239.13;5125481;27;20030;-67
2022/12/25 00:54:14;;;;;;;14.30;7.95;;;;;;;-140.72;100.00;53239.13;5125649;27;20054;-69
2022/12/25 00:56:39;;;;;;;10.95;6.32;;;;;;;-140.72;100.00;53196.50;5130157;27;20042;-68
2022/12/25 00:59:05;;;;;;;12.00;6.18;;;;;;;-140.72;100.00;53263.47;5126787;27;20027;-67
2022/12/25 01:01:31;;;;;;;22.00;7.70;;;;;;;-140.72;100.00;53237.09;5127430;27;20446;-68
2022/12/25 01:03:56;;;;;;;13.35;6.93;;;;;;;-140.72;100.00;53255.34;5128404;27;20385;-67
2022/12/25 01:06:22;;;;;;;17.60;6.47;;;;;;;-140.72;100.00;53243.19;5126639;27;20514;-68
2022/12/25 01:11:31;;;;;;;13.80;6.95;;;;;;;-140.72;100.00;53212.75;5129805;27;20533;-68
2022/12/25 01:13:57;;;;;;;14.70;7.15;;;;;;;-140.72;100.00;53194.47;5129258;27;20051;-69
2022/12/25 01:16:22;;;;;;;10.90;7.10;;;;;;;-140.72;100.00;53212.75;5128530;27;20023;-68
2022/12/25 01:18:47;;;;;;;18.80;7.78;;;;;;;-140.72;100.00;53249.28;5127248;27;20062;-68
2022/12/25 01:21:15;;;;;;;16.77;6.82;;;;;;;-140.72;100.00;53216.78;5124835;27;20463;-66
2022/12/25 01:23:41;;;;;;;18.50;7.45;;;;;;;-140.72;100.00;53255.34;5126999;27;20343;-67
2022/12/25 01:26:09;;;;;;;20.13;7.68;;;;;;;-140.72;100.00;53222.88;5124868;27;20059;-67
2022/12/25 01:28:35;;;;;;;13.85;7.90;;;;;;;-140.72;100.00;53228.97;5127191;27;20526;-69
2022/12/25 01:31:01;;;;;;;21.27;8.80;;;;;;;-140.72;100.00;53216.78;5130412;27;20042;-67
2022/12/25 01:33:27;;;;;;;15.13;7.32;;;;;;;-140.72;100.00;53241.16;5128699;27;20120;-68
2022/12/25 01:35:53;;;;;;;12.98;7.68;;;;;;;-140.72;100.00;53228.97;5126348;27;20106;-69
2022/12/25 01:38:18;;;;;;;17.15;8.40;;;;;;;-140.72;100.00;53243.19;5128437;27;20033;-67
2022/12/25 01:40:43;;;;;;;12.02;8.20;;;;;;;-140.72;100.00;53271.59;5127972;27;20023;-68
2022/12/25 01:43:20;;;;;;;14.50;7.55;;;;;;;-140.72;100.00;53226.94;5129770;27;20023;-68
2022/12/25 01:45:47;;;;;;;16.98;7.80;;;;;;;-140.72;100.00;53239.13;5127073;27;20035;-70
2022/12/25 01:48:18;;;;;;;11.93;7.35;;;;;;;-140.72;100.00;53214.78;5128970;27;20046;-68
2022/12/25 01:50:48;;;;;;;13.57;7.35;;;;;;;-140.72;100.00;53226.94;5128873;27;20023;-67
2022/12/25 01:53:13;;;;;;;;;;;;;;;-140.72;100.00;53218.81;5129268;27;20022;-68
2022/12/25 01:55:41;;;;;;;10.10;6.78;;;;;;;-140.72;100.00;53210.72;5128166;27;19907;-70
2022/12/25 01:58:07;;;;;;;16.83;8.38;;;;;;;-140.72;100.00;53224.91;5125800;27;20019;-68
2022/12/25 02:00:36;;;;;;;12.30;7.72;;;;;;;-140.72;100.00;53222.88;5129347;27;20015;-68
2022/12/25 02:03:02;;;;;;;23.45;8.98;;;;;;;-140.72;100.00;53222.88;5123126;27;20031;-67
2022/12/25 02:05:34;;;;;;;15.25;8.27;;;;;;;-140.72;100.00;53245.22;5128240;27;20019;-67
2022/12/25 02:08:06;;;;;;;15.30;7.95;;;;;;;-140.72;100.00;53202.59;5125338;27;20038;-68
2022/12/25 02:10:32;;;;;;;11.82;8.43;;;;;;;-140.72;100.00;53222.88;5127096;27;20030;-69
2022/12/25 02:12:58;;;;;;;10.70;7.20;;;;;;;-140.72;100.00;53231.00;5129456;27;20023;-67
2022/12/25 02:15:32;;;;;;;14.70;8.98;;;;;;;-140.72;100.00;53222.88;5127765;27;20030;-67
2022/12/25 02:18:25;;;;;;;14.85;8.85;;;;;;;-140.72;100.00;53226.94;5126165;27;20019;-68
2022/12/25 02:21:28;;;;;;;11.77;7.75;;;;;;;-140.72;100.00;53202.59;5122690;27;20646;-67
2022/12/25 02:24:24;;;;;;;19.48;8.13;;;;;;;-140.72;100.00;53243.19;5127386;27;20026;-68
2022/12/25 02:27:14;;;;;;;12.27;8.90;;;;;;;-140.72;100.00;53237.09;5127222;27;20043;-68
2022/12/25 02:29:45;;;;;;;14.25;8.15;;;;;;;-140.72;100.00;53214.78;5126510;27;20058;-68
2022/12/25 02:32:22;;;;;;;14.38;7.38;;;;;;;-140.72;100.00;53200.56;5129019;27;20019;-67
2022/12/25 02:34:58;;;;;;;18.80;10.18;;;;;;;-140.72;100.00;53198.53;5127643;27;20027;-67
2022/12/25 02:37:39;;;;;;;17.75;8.68;;;;;;;-140.72;100.00;53226.94;5125850;27;20026;-67
2022/12/25 02:40:08;;;;;;;12.27;8.35;;;;;;;-140.72;100.00;53218.81;5127370;27;20027;-68
2022/12/25 03:07:58;;;;;;;17.05;10.02;;;;;;;-140.72;100.00;53216.78;5125373;28;20402;-66
2022/12/25 03:13:14;;;;;;;15.13;9.85;;;;;;;-140.72;100.00;53243.19;5129832;28;20042;-67
2022/12/25 03:18:26;;;;;;;14.70;9.65;;;;;;;-140.72;100.00;53235.06;5124412;28;20083;-67
2022/12/25 03:31:10;;;;;;;20.98;10.82;;;;;;;-140.72;100.00;53188.38;5123885;28;20042;-65
2022/12/25 03:32:08;;;;;;;19.52;10.43;;;;;;;-140.72;100.00;53198.53;5124883;28;20461;-67
2022/12/25 03:35:24;;;;;;;21.88;11.70;;;;;;;-140.72;100.00;53186.34;5122047;28;20026;-66
2022/12/25 04:36:42;;;;;;;15.48;8.77;;;;;;;-140.72;100.00;53192.44;5129386;27;20359;-66
2022/12/25 04:39:11;;;;;;;13.07;7.28;;;;;;;-140.72;100.00;53237.09;5132064;27;20015;-66
2022/12/25 04:41:37;;;;;;;11.20;8.40;;;;;;;-140.72;100.00;53255.34;5130502;27;20067;-66
2022/12/25 04:44:05;;;;;;;10.88;6.43;;;;;;;-140.72;100.00;53218.81;5131644;27;20018;-67
2022/12/25 04:46:31;;;;;;;18.13;8.50;;;;;;;-140.72;100.00;53231.00;5129753;27;20058;-65
2022/12/25 04:48:56;;;;;;;11.77;6.50;;;;;;;-140.72;100.00;53249.28;5131789;27;20043;-67
2022/12/25 04:51:24;;;;;;;10.00;6.18;;;;;;;-140.72;100.00;53224.91;5129484;27;20450;-67
2022/12/25 04:53:50;;;;;;;10.55;6.72;;;;;;;-140.72;100.00;53243.19;5130439;27;20431;-66
2022/12/25 04:56:16;;;;;;;11.05;6.95;;;;;;;-140.72;100.00;53233.03;5127100;27;20023;-67
2022/12/25 04:58:43;;;;;;;9.07;5.93;;;;;;;-140.72;100.00;53243.19;5131191;27;20414;-67
2022/12/25 05:01:08;;;;;;;8.43;5.90;;;;;;;-140.72;100.00;53231.00;5130686;27;20049;-67
2022/12/25 05:03:37;;;;;;;13.13;6.93;;;;;;;-140.72;100.00;53243.19;5131260;27;20443;-68
2022/12/25 05:06:03;;;;;;;13.27;5.47;;;;;;;-140.72;100.00;53218.81;5123875;27;20023;-66
2022/12/25 05:08:30;;;;;;;11.07;6.60;;;;;;;-140.72;100.00;53239.13;5127977;27;20033;-68
2022/12/25 05:10:55;;;;;;;12.18;6.30;;;;;;;-140.72;100.00;53226.94;5129898;27;20027;-65
2022/12/25 05:13:21;;;;;;;9.38;5.43;;;;;;;-140.72;100.00;53251.31;5127950;27;20383;-67
2022/12/25 05:15:46;;;;;;;14.07;5.63;;;;;;;-140.72;100.00;53214.78;5129307;27;20324;-66
2022/12/25 05:18:12;;;;;;;11.85;5.85;;;;;;;-140.72;100.00;53235.06;5131022;27;20514;-66
2022/12/25 05:20:37;;;;;;;11.65;5.35;;;;;;;-140.72;100.00;53228.97;5130421;27;20025;-66
2022/12/25 05:23:03;;;;;;;11.13;5.47;;;;;;;-140.72;100.00;53228.97;5132313;27;20519;-65
2022/12/25 05:25:28;;;;;;;5.88;4.60;;;;;;;-140.72;100.00;53241.16;5125093;27;20031;-66
2022/12/25 05:27:54;;;;;;;12.05;5.65;;;;;;;-140.72;100.00;53263.47;5129292;27;20115;-67
2022/12/25 05:30:19;;;;;;;7.72;4.78;;;;;;;-140.72;100.00;53249.28;5131197;27;20053;-67
2022/12/25 05:32:46;;;;;;;7.72;4.32;;;;;;;-140.72;100.00;53235.06;5129010;27;20019;-65
2022/12/25 05:35:11;;;;;;;8.88;4.47;;;;;;;-140.72;100.00;53259.41;5130569;27;20055;-66
2022/12/25 05:37:37;;;;;;;11.88;4.07;;;;;;;-140.72;100.00;53214.78;5128939;27;20042;-66
2022/12/25 05:40:03;;;;;;;10.73;4.93;;;;;;;-140.72;100.00;53239.13;5126103;27;20058;-66
2022/12/25 05:42:28;;;;;;;7.53;4.55;;;;;;;-140.72;100.00;53231.00;5130819;27;20436;-66
2022/12/25 05:44:54;;;;;;;7.30;4.60;;;;;;;-140.72;100.00;53233.03;5129034;27;20094;-65
2022/12/25 05:47:19;;;;;;;11.90;4.40;;;;;;;-140.72;100.00;53251.31;5127028;27;20036;-67
2022/12/25 05:49:44;;;;;;;10.80;4.07;;;;;;;-140.72;100.00;53243.19;5124401;27;20020;-66
2022/12/25 05:52:10;;;;;;;7.57;4.75;;;;;;;-140.72;100.00;53224.91;5127844;27;20039;-68
2022/12/25 05:54:35;;;;;;;5.80;3.92;;;;;;;-140.72;100.00;53233.03;5126741;27;20027;-66
2022/12/25 05:57:01;;;;;;;10.43;5.20;;;;;;;-140.72;100.00;53198.53;5121857;27;20110;-65
2022/12/25 05:59:31;;;;;;;8.90;5.40;;;;;;;-140.72;100.00;53212.75;5123126;27;20039;-67
2022/12/25 06:01:56;;;;;;;10.68;4.50;;;;;;;-140.72;100.00;53279.72;5123158;27;20468;-67
2022/12/25 06:04:22;;;;;;;7.43;5.13;;;;;;;-140.72;100.00;53257.38;5125099;27;20106;-67
2022/12/25 06:06:47;;;;;;;6.80;4.60;;;;;;;-140.72;100.00;53218.81;5119449;27;20030;-68
2022/12/25 06:09:13;;;;;;;7.28;4.28;;;;;;;-140.72;100.00;53255.34;5124648;27;20066;-67
2022/12/25 06:11:39;;;;;;;5.32;3.97;;;;;;;-140.72;100.00;53224.91;5122761;27;20026;-67
2022/12/25 06:14:04;;;;;;;6.18;4.25;;;;;;;-140.72;100.00;53218.81;5116473;27;20458;-67
2022/12/25 06:16:30;;;;;;;8.00;4.85;;;;;;;-140.72;100.00;53231.00;5118460;27;20027;-67
2022/12/25 06:18:55;;;;;;;6.15;4.22;;;;;;;-140.72;100.00;53243.19;5120664;27;20031;-67
2022/12/25 06:21:21;;;;;;;11.57;4.68;;;;;;;-140.72;100.00;53198.53;5113401;27;20343;-66
2022/12/25 06:23:46;;;;;;;4.85;3.58;;;;;;;-140.72;100.00;53218.81;5111749;27;20068;-66
2022/12/25 06:26:16;;;;;;;7.00;3.70;;;;;;;-140.72;100.00;53214.78;5119761;27;20486;-67
2022/12/25 06:28:41;;;;;;;5.35;4.25;;;;;;;-140.72;100.00;53202.59;5113573;27;20415;-68
2022/12/25 06:31:14;;;;;;;6.55;4.15;;;;;;;-140.72;100.00;53261.44;5123415;27;20102;-67
2022/12/25 06:33:40;;;;;;;7.05;3.75;;;;;;;-140.72;100.00;53275.66;5124197;27;20032;-68
2022/12/25 06:36:14;;;;;;;8.25;4.55;;;;;;;-140.72;100.00;53239.13;5127393;27;20411;-68
2022/12/25 06:38:41;;;;;;;6.65;4.40;;;;;;;-140.72;100.00;53200.56;5125336;27;20079;-65
2022/12/25 06:41:26;;;;;;;5.85;3.85;;;;;;;-140.72;100.00;53249.28;5128039;27;20031;-67
2022/12/25 06:43:58;;;;;;;6.13;4.05;;;;;;;-140.72;100.00;53239.13;5121266;27;20720;-68
2022/12/25 06:46:25;;;;;;;4.82;3.90;;;;;;;-140.72;100.00;53222.88;5123569;27;20023;-66
2022/12/25 06:48:52;;;;;;;5.03;3.42;;;;;;;-140.72;100.00;53249.28;5123109;27;20039;-66
2022/12/25 06:51:23;;;;;;;8.15;3.60;;;;;;;-140.72;100.00;53235.06;5121624;27;20030;-66
2022/12/25 06:53:50;;;;;;;9.77;3.83;;;;;;;-140.72;100.00;53247.25;5123440;27;20027;-67
2022/12/25 06:56:18;;;;;;;5.88;4.22;;;;;;;-140.72;100.00;53196.50;5122623;27;20076;-65
2022/12/25 06:58:46;;;;;;;4.95;3.40;;;;;;;-140.72;100.00;53251.31;5121330;27;20023;-67
2022/12/25 07:01:42;;;;;;;4.65;3.53;;;;;;;-140.72;100.00;53210.72;5123825;27;20019;-67
2022/12/25 07:04:30;;;;;;;7.50;4.30;;;;;;;-140.72;100.00;53239.13;5114473;27;20110;-67
2022/12/25 07:06:56;;;;;;;6.38;4.50;;;;;;;-140.72;100.00;53226.94;5125046;28;20092;-66
2022/12/25 07:09:22;;;;;;;6.72;4.53;;;;;;;-140.72;100.00;53190.41;5126919;28;20019;-67
2022/12/25 07:11:47;;;;;;;6.38;4.78;;;;;;;-140.72;100.00;53222.88;5123708;28;20023;-68
2022/12/25 07:14:17;;;;;;;6.93;3.85;;;;;;;-140.72;100.00;53222.88;5125494;28;20042;-66
2022/12/25 07:16:43;;;;;;;6.65;5.38;;;;;;;-140.72;100.00;53200.56;5126890;27;20020;-67
2022/12/25 07:19:09;;;;;;;9.55;5.30;;;;;;;-140.72;100.00;53224.91;5126677;27;20023;-66
2022/12/25 07:21:34;;;;;;;8.73;5.63;;;;;;;-140.72;100.00;53206.66;5130415;27;20034;-68
2022/12/25 07:24:00;;;;;;;7.70;5.57;;;;;;;-140.72;100.00;53198.53;5124453;27;20051;-66
2022/12/25 07:26:25;;;;;;;7.28;5.57;;;;;;;-140.72;100.00;53235.06;5127288;27;20027;-68
2022/12/25 07:28:54;;;;;;;6.57;5.05;;;;;;;-140.72;100.00;53182.28;5127894;27;20356;-66
2022/12/25 07:31:23;;;;;;;8.40;4.45;;;;;;;-140.72;100.00;53190.41;5128673;27;20027;-66
2022/12/25 07:34:01;;;;;;;7.13;5.28;;;;;;;-140.72;100.00;53228.97;5123594;27;20106;-65
2022/12/25 07:36:27;;;;;;;7.85;4.45;;;;;;;-140.72;100.00;53214.78;5127092;27;20027;-66
2022/12/25 07:38:52;;;;;;;7.55;5.32;;;;;;;-140.72;100.00;53196.50;5126718;27;20142;-66
2022/12/25 07:41:17;;;;;;;6.13;4.45;;;;;;;-140.72;100.00;53245.22;5128433;27;20071;-67
2022/12/25 07:43:43;;;;;;;6.55;4.38;;;;;;;-140.72;100.00;53208.69;5128996;27;20293;-68
2022/12/25 07:46:09;;;;;;;7.43;5.15;;;;;;;-140.72;100.00;53226.94;5126911;27;20019;-67
2022/12/25 07:48:34;;;;;;;7.28;5.35;;;;;;;-140.72;100.00;53247.25;5128628;27;20043;-66
2022/12/25 07:51:05;;;;;;;10.85;5.18;;;;;;;-140.72;100.00;53224.91;5128781;27;20041;-67
2022/12/25 07:53:32;;;;;;;7.75;5.68;;;;;;;-140.72;100.00;53196.50;5129444;27;20056;-66
2022/12/25 07:56:00;;;;;;;6.65;4.55;;;;;;;-140.72;100.00;53235.06;5130369;27;20439;-67
2022/12/25 07:58:26;;;;;;;7.72;4.60;;;;;;;-140.72;100.00;53212.75;5125250;27;20046;-66
2022/12/25 08:00:51;;;;;;;7.75;5.82;;;;;;;-140.72;100.00;53206.66;5127454;27;20440;-66
2022/12/25 08:03:17;;;;;;;11.55;6.03;;;;;;;-140.72;100.00;53214.78;5128791;27;20076;-66
2022/12/25 08:05:42;;;;;;;6.18;4.88;;;;;;;-140.72;100.00;53212.75;5130277;27;20422;-67
2022/12/25 08:08:08;;;;;;;9.45;5.00;;;;;;;-140.72;100.00;53271.59;5126964;27;20019;-66
2022/12/25 08:10:33;;;;;;;7.53;5.47;;;;;;;-140.72;100.00;53214.78;5126559;27;20028;-68
2022/12/25 08:12:58;;;;;;;7.32;5.78;;;;;;;-140.72;100.00;53218.81;5127034;27;20022;-68
2022/12/25 08:15:24;;;;;;;7.18;5.13;;;;;;;-140.72;100.00;53212.75;5124414;27;20025;-66
2022/12/25 08:17:49;;;;;;;6.00;4.70;;;;;;;-140.72;100.00;53192.44;5128222;27;20023;-65
2022/12/25 08:20:17;;;;;;;14.75;6.82;;;;;;;-140.72;100.00;53222.88;5127215;27;20401;-66
2022/12/25 08:22:43;;;;;;;9.05;5.95;;;;;;;-140.72;100.00;53202.59;5126924;27;20015;-66
2022/12/25 08:25:11;;;;;;;13.85;6.65;;;;;;;-140.72;100.00;53245.22;5127251;27;20041;-68
2022/12/25 08:27:36;;;;;;;12.52;6.85;;;;;;;-140.72;100.00;53235.06;5128222;27;20382;-66
2022/12/25 08:30:03;;;;;;;10.27;6.40;;;;;;;-140.72;100.00;53269.56;5126294;27;20155;-67
2022/12/25 08:32:31;;;;;;;11.55;6.65;;;;;;;-140.72;100.00;53192.44;5126841;27;20023;-68
2022/12/25 08:34:56;;;;;;;10.85;7.32;;;;;;;-140.72;100.00;53263.47;5126768;27;20038;-67
2022/12/25 08:37:22;;;;;;;10.70;5.93;;;;;;;-140.72;100.00;53198.53;5129880;27;20023;-67
2022/12/25 08:39:47;;;;;;;10.18;7.30;;;;;;;-140.72;100.00;53214.78;5127440;27;20084;-67
2022/12/25 08:42:14;;;;;;;16.63;7.40;;;;;;;-140.72;100.00;53210.72;5121641;27;20031;-69
2022/12/25 08:44:39;;;;;;;9.85;7.10;;;;;;;-140.72;100.00;53222.88;5118205;27;20101;-67
2022/12/25 08:47:04;;;;;;;10.05;6.18;;;;;;;-140.72;100.00;53190.41;5125078;27;20023;-68
2022/12/25 08:49:30;;;;;;;10.60;6.38;;;;;;;-140.72;100.00;53241.16;5118736;27;20059;-68
2022/12/25 08:51:55;;;;;;;8.52;6.07;;;;;;;-140.72;100.00;53235.06;5127735;27;20054;-67
2022/12/25 08:54:20;;;;;;;9.55;5.50;;;;;;;-140.72;100.00;53194.47;5121942;27;20020;-67
2022/12/25 08:56:46;;;;;;;8.32;5.38;;;;;;;-140.72;100.00;53255.34;5121163;27;20374;-67
2022/12/25 08:59:12;;;;;;;11.00;5.13;;;;;;;-140.72;100.00;53245.22;5126014;27;20430;-67
2022/12/25 09:01:37;;;;;;;8.80;5.82;;;;;;;-140.72;100.00;53190.41;5114706;27;20317;-67
2022/12/25 09:04:03;;;;;;;9.52;5.70;;;;;;;-140.72;100.00;53226.94;5125210;27;20026;-66
2022/12/25 09:06:28;;;;;;;8.43;6.00;;;;;;;-140.72;100.00;53166.06;5125536;27;20023;-67
2022/12/25 09:08:54;;;;;;;10.32;5.93;;;;;;;-140.72;100.00;53231.00;5125920;27;20463;-67
2022/12/25 09:11:23;;;;;;;9.32;4.93;;;;;;;-140.72;100.00;53200.56;5129001;27;20458;-67
2022/12/25 09:13:51;;;;;;;8.40;4.68;;;;;;;-140.72;100.00;53251.31;5116238;27;20071;-66
2022/12/25 09:16:20;;;;;;;7.28;4.07;;;;;;;-140.72;100.00;53182.28;5126461;27;20343;-66
2022/12/25 09:18:45;;;;;;;8.45;5.72;;;;;;;-140.72;100.00;53198.53;5120236;27;20028;-66
2022/12/25 09:21:13;;;;;;;6.97;3.95;;;;;;;-140.72;100.00;53198.53;5115971;27;20024;-69
2022/12/25 09:23:39;;;;;;;5.78;3.90;;;;;;;-140.72;100.00;53182.28;5126794;27;20027;-66
2022/12/25 09:26:07;;;;;;;6.88;3.80;;;;;;;-140.72;100.00;53271.59;5118296;27;20451;-67
2022/12/25 09:28:33;;;;;;;15.82;5.35;;;;;;;-140.72;100.00;53228.97;5120571;27;20035;-66
2022/12/25 09:30:59;;;;;;;8.38;4.90;;;;;;;-140.72;100.00;53208.69;5115263;27;20046;-66
2022/12/25 09:33:25;;;;;;;9.20;4.38;;;;;;;-140.72;100.00;53222.88;5126642;27;20023;-66
2022/12/25 09:35:55;;;;;;;9.25;4.70;;;;;;;-140.72;100.00;53214.78;5119969;27;20055;-67
2022/12/25 09:38:21;;;;;;;12.80;5.63;;;;;;;-140.72;100.00;53235.06;5120724;27;20027;-66
2022/12/25 09:40:46;;;;;;;6.82;4.57;;;;;;;-140.72;100.00;53204.63;5122975;27;20032;-66
2022/12/25 09:43:20;;;;;;;8.57;4.97;;;;;;;-140.72;100.00;53255.34;5124152;27;20115;-67
2022/12/25 09:45:46;;;;;;;9.30;4.78;;;;;;;-140.72;100.00;53261.44;5126205;27;20058;-67
2022/12/25 09:48:14;;;;;;;7.20;4.03;;;;;;;-140.72;100.00;53233.03;5126639;27;20070;-66
2022/12/25 09:50:46;;;;;;;7.32;4.93;;;;;;;-140.72;100.00;53251.31;5125636;27;20027;-66
2022/12/25 09:53:18;;;;;;;8.85;5.15;;;;;;;-140.72;100.00;53216.78;5127920;27;20404;-66
2022/12/25 09:56:15;;;;;;;10.18;4.80;;;;;;;-140.72;100.00;53218.81;5119799;27;20030;-65
2022/12/25 09:58:40;;;;;;;9.23;5.55;;;;;;;-140.72;100.00;53216.78;5125094;27;20035;-65
2022/12/25 10:01:19;;;;;;;12.05;6.00;;;;;;;-140.72;100.00;53249.28;5112510;27;20037;-67
2022/12/25 10:04:19;;;;;;;8.15;5.50;;;;;;;-140.72;100.00;53218.81;5110990;27;20028;-67
2022/12/25 10:07:12;;;;;;;12.30;5.38;;;;;;;-140.72;100.00;53237.09;5064472;27;20469;-68
2022/12/25 10:10:01;;;;;;;7.05;5.00;;;;;;;-140.72;100.00;53222.88;5116341;27;20078;-67
2022/12/25 10:12:49;;;;;;;11.95;5.80;;;;;;;-140.72;100.00;53233.03;5124487;27;20026;-66
2022/12/25 10:15:45;;;;;;;11.00;6.22;;;;;;;-140.72;100.00;53243.19;5123066;27;20046;-66
2022/12/25 10:18:32;;;;;;;9.95;5.07;;;;;;;-140.72;100.00;53204.63;5118852;27;20085;-66
2022/12/25 10:21:00;;;;;;;10.63;5.65;;;;;;;-140.72;100.00;53233.03;5126021;27;20023;-67
2022/12/25 10:23:34;;;;;;;9.25;5.85;;;;;;;-140.72;100.00;53198.53;5125995;27;20027;-70
2022/12/25 10:26:00;;;;;;;9.73;5.10;;;;;;;-140.72;100.00;53210.72;5120226;27;20023;-68
2022/12/25 10:28:36;;;;;;;8.50;5.70;;;;;;;-140.72;100.00;53206.66;5116199;27;20331;-67
2022/12/25 10:31:16;;;;;;;8.52;5.50;;;;;;;-140.72;100.00;53237.09;5117923;27;20025;-66
2022/12/25 10:33:42;;;;;;;11.90;6.13;;;;;;;-140.72;100.00;53212.75;5117220;27;20127;-67
2022/12/25 10:36:08;;;;;;;8.02;5.30;;;;;;;-140.72;100.00;53251.31;5118892;27;20038;-67
2022/12/25 10:38:35;;;;;;;7.18;5.07;;;;;;;-140.72;100.00;53188.38;5119124;27;20466;-66
2022/12/25 10:41:22;;;;;;;9.50;6.07;;;;;;;-140.72;100.00;53251.31;5124108;27;20029;-66
2022/12/25 10:43:50;;;;;;;8.73;6.38;;;;;;;-140.72;100.00;53247.25;5117863;27;20212;-65
2022/12/25 10:46:17;;;;;;;7.30;5.45;;;;;;;-140.72;100.00;53210.72;5116727;27;20126;-66
2022/12/25 10:48:47;;;;;;;12.75;5.70;;;;;;;-140.72;100.00;53190.41;5112204;27;20035;-66
2022/12/25 10:51:13;;;;;;;9.82;6.35;;;;;;;-140.72;100.00;53253.31;5119482;27;20119;-68
2022/12/25 10:53:42;;;;;;;12.38;6.65;;;;;;;-140.72;100.00;53243.19;5124060;27;20365;-66
2022/12/25 10:56:16;;;;;;;17.70;7.07;;;;;;;-140.72;100.00;53206.66;5125951;27;20031;-68
2022/12/25 10:58:42;;;;;;;14.80;5.82;;;;;;;-140.72;100.00;53265.50;5121157;27;20513;-66
2022/12/25 11:01:08;;;;;;;10.88;7.03;;;;;;;-140.72;100.00;53222.88;5116408;27;20687;-66
2022/12/25 11:03:37;;;;;;;11.52;7.20;;;;;;;-140.72;100.00;53239.13;5118225;27;20023;-66
2022/12/25 11:06:04;;;;;;;10.40;6.93;;;;;;;-140.72;100.00;53271.59;5122434;27;20046;-68
2022/12/25 11:08:31;;;;;;;9.43;6.53;;;;;;;-140.72;100.00;53235.06;5119359;28;20078;-68
2022/12/25 11:11:07;;;;;;;12.68;7.15;;;;;;;-140.72;100.00;53289.88;5117335;28;20048;-66
2022/12/25 11:13:38;;;;;;;16.63;7.97;;;;;;;-140.72;100.00;53222.88;5118549;28;20437;-66
2022/12/25 11:16:09;;;;;;;15.30;9.27;;;;;;;-140.72;100.00;53192.44;5124516;28;20023;-68
2022/12/25 11:18:48;;;;;;;15.10;7.88;;;;;;;-140.72;100.00;53249.28;5124931;28;20015;-65
2022/12/25 11:21:26;;;;;;;15.10;7.35;;;;;;;-140.72;100.00;53198.53;5119328;28;20102;-65
2022/12/25 11:24:02;;;;;;;10.15;6.93;;;;;;;-140.72;100.00;53210.72;5122534;28;20027;-66
2022/12/25 11:26:33;;;;;;;8.93;6.05;;;;;;;-140.72;100.00;53206.66;5125863;28;20447;-68
2022/12/25 11:28:59;;;;;;;9.77;6.00;;;;;;;-140.72;100.00;53222.88;5121896;28;20141;-66
2022/12/25 11:31:40;;;;;;;7.68;5.97;;;;;;;-140.72;100.00;53178.22;5126235;28;20023;-67
2022/12/25 11:34:16;;;;;;;10.27;7.20;;;;;;;-140.72;100.00;53166.06;5124887;28;20055;-65
2022/12/25 11:36:47;;;;;;;12.40;5.78;;;;;;;-140.72;100.00;53263.47;5127518;28;20370;-69
2022/12/25 11:39:35;;;;;;;9.55;6.78;;;;;;;-140.72;100.00;53241.16;5124166;28;20030;-69
2022/12/25 11:42:12;;;;;;;11.18;6.68;;;;;;;-140.72;100.00;53224.91;5122811;28;20026;-67
2022/12/25 11:45:12;;;;;;;9.20;6.15;;;;;;;-140.72;100.00;53218.81;5122888;28;20481;-67
2022/12/25 11:47:58;;;;;;;12.15;7.90;;;;;;;-140.72;100.00;53176.22;5122484;28;20091;-68
2022/12/25 11:50:48;;;;;;;14.45;6.80;;;;;;;-140.72;100.00;53216.78;5123826;28;20020;-66
2022/12/25 11:53:22;;;;;;;10.32;6.70;;;;;;;-140.72;100.00;53192.44;5122428;28;20031;-68
2022/12/25 11:55:53;;;;;;;8.57;6.30;;;;;;;-140.72;100.00;53206.66;5122255;28;20030;-69
2022/12/25 11:58:46;;;;;;;8.98;6.95;;;;;;;-140.72;100.00;53192.44;5125428;28;20443;-67
2022/12/25 12:01:34;;;;;;;11.65;7.00;;;;;;;-140.72;100.00;53226.94;5126105;28;20015;-66
2022/12/25 12:04:01;;;;;;;10.35;6.57;;;;;;;-140.72;100.00;53196.50;5113276;27;20071;-66
2022/12/25 12:06:48;;;;;;;9.98;6.95;;;;;;;-140.72;100.00;53192.44;5128186;27;20463;-66
2022/12/25 12:09:36;;;;;;;9.20;5.38;;;;;;;-140.72;100.00;53216.78;5125022;27;20058;-67
2022/12/25 12:12:15;;;;;;;10.20;6.22;;;;;;;-140.72;100.00;53202.59;5128774;27;20442;-66
2022/12/25 12:14:49;;;;;;;12.68;5.68;;;;;;;-140.72;100.00;53178.22;5126322;27;20030;-66
2022/12/25 12:17:17;;;;;;;8.45;6.00;;;;;;;-140.72;100.00;53218.81;5130105;27;20111;-66
2022/12/25 12:19:43;;;;;;;12.27;7.40;;;;;;;-140.72;100.00;53226.94;5124161;27;20454;-66
2022/12/25 12:22:23;;;;;;;12.95;7.70;;;;;;;-140.72;100.00;53194.47;5126100;27;20023;-68
2022/12/25 12:24:58;;;;;;;8.77;6.28;;;;;;;-140.72;100.00;53241.16;5126159;27;20423;-67
2022/12/25 12:27:39;;;;;;;8.48;6.13;;;;;;;-140.72;100.00;53245.22;5125916;27;20020;-66
2022/12/25 12:30:06;;;;;;;11.35;6.95;;;;;;;-140.72;100.00;53214.78;5124853;27;20324;-66
2022/12/25 12:32:48;;;;;;;12.52;6.88;;;;;;;-140.72;100.00;53212.75;5124605;27;20038;-66
2022/12/25 12:35:17;;;;;;;9.82;7.18;;;;;;;-140.72;100.00;53247.25;5127973;27;20023;-66
2022/12/25 12:37:47;;;;;;;9.90;7.07;;;;;;;-140.72;100.00;53218.81;5124333;27;20030;-67
2022/12/25 12:40:24;;;;;;;;;;;;;;;-140.72;100.00;53212.75;5127217;27;20030;-66
2022/12/25 12:42:51;;;;;;;9.98;6.50;;;;;;;-140.72;100.00;53239.13;5109555;27;19919;-69
2022/12/25 12:45:24;;;;;;;7.78;6.45;;;;;;;-140.72;100.00;53255.34;5125395;27;20033;-67
2022/12/25 12:47:50;;;;;;;9.65;6.88;;;;;;;-140.72;100.00;53212.75;5126153;27;20074;-69
2022/12/25 12:50:28;;;;;;;11.98;8.00;;;;;;;-140.72;100.00;53255.34;5127960;27;20027;-67
2022/12/25 12:52:54;;;;;;;11.88;8.25;;;;;;;-140.72;100.00;53194.47;5127169;27;20071;-67
2022/12/25 12:55:34;;;;;;;17.15;9.20;;;;;;;-140.72;100.00;53218.81;5126313;27;20023;-67
2022/12/25 12:58:04;;;;;;;10.23;8.27;;;;;;;-140.72;100.00;53243.19;5126572;27;20023;-68
2022/12/25 13:00:47;;;;;;;9.77;7.05;;;;;;;-140.72;100.00;53210.72;5125955;27;20047;-67